Dades meteomassalio
Diari Summary for Febrer 13, 2018 Units:  Both    English   Metric
« Previous Day
Next Day »
Diari Semanal Mensual Anual Personalitzat
  Maxima: Minima: Mijana:
Temperatura: TemperatureC °F /  -17.8 °C -4.4 °F /  -20.2 °C 3.4 °F /  -15.9 °C
Rosada: DewpointC °F /  -17.8 °C -6.3 °F /  -21.3 °C -1.5 °F /  -18.6 °C
Humitat: Humidity % 46 % 71 %
Velocitat del vent: WindSpeedKMH mph /  0 km/h - 10.5 mph /  16.9 km/h
Racha vent: WindSpeedGustKMH mph /  0 km/h - -
Vent:- - WNW
Pressio: PressurehPa in /  0 hPa 1018.8 in /  34496.6 hPa -
Pluja: 0.0 in /  0 mm    
Historical Graphs
 
 
Tabular Data for Febrer 13, 2018
Time Temperature Dew Point Pressure Wind Wind Speed Wind Gust Humidity Rainfall Rate (Hourly) solar Conditions
TemperatureC °F /  -17.8 °C DewpointC °F /  -17.8 °C PressurehPa in /  0 hPa Calm     Humidity % HourlyPrecipMM in /  0 mm SolarRadiationWatts/m^2 W/m2 Conditions
00:03 2.8 °F /  -16.2 °C -1.9 °F /  -18.8 °C 1023.6 in /  34659.1 hPa NW 20.4 mph /  32.8 km/h 20.4 mph /  32.8 km/h 71 % 0.0 in /  0 mm 0.0 W/m2 RA
00:08 2.8 °F /  -16.2 °C -2.2 °F /  -19 °C 1023.6 in /  34659.1 hPa NW 18.5 mph /  29.8 km/h 18.5 mph /  29.8 km/h 70 % 0.0 in /  0 mm 0.0 W/m2 CLR
00:13 2.8 °F /  -16.2 °C -2.2 °F /  -19 °C 1023.6 in /  34659.1 hPa NW 18.5 mph /  29.8 km/h 18.5 mph /  29.8 km/h 70 % 0.0 in /  0 mm 0.0 W/m2 CLR
00:18 2.8 °F /  -16.2 °C -2.2 °F /  -19 °C 1023.2 in /  34645.6 hPa NW 18.5 mph /  29.8 km/h 18.5 mph /  29.8 km/h 70 % 0.0 in /  0 mm 0.0 W/m2 CLR
00:23 2.2 °F /  -16.6 °C -2.7 °F /  -19.3 °C 1023.6 in /  34659.1 hPa NW 14.8 mph /  23.8 km/h 14.8 mph /  23.8 km/h 70 % 0.0 in /  0 mm 0.0 W/m2 CLR
00:28 2.2 °F /  -16.6 °C -2.5 °F /  -19.2 °C 1023.6 in /  34659.1 hPa NW 14.8 mph /  23.8 km/h 14.8 mph /  23.8 km/h 71 % 0.0 in /  0 mm 0.0 W/m2 CLR
00:33 2.2 °F /  -16.6 °C -2.5 °F /  -19.2 °C 1023.6 in /  34659.1 hPa NW 14.8 mph /  23.8 km/h 14.8 mph /  23.8 km/h 71 % 0.0 in /  0 mm 0.0 W/m2 CLR
00:38 2.2 °F /  -16.6 °C -2.5 °F /  -19.2 °C 1023.6 in /  34659.1 hPa NW 18.5 mph /  29.8 km/h 18.5 mph /  29.8 km/h 71 % 0.0 in /  0 mm 0.0 W/m2 CLR
00:43 2.2 °F /  -16.6 °C -2.7 °F /  -19.3 °C 1023.6 in /  34659.1 hPa NW 18.5 mph /  29.8 km/h 18.5 mph /  29.8 km/h 70 % 0.0 in /  0 mm 0.0 W/m2 CLR
00:48 2.2 °F /  -16.6 °C -2.7 °F /  -19.3 °C 1023.6 in /  34659.1 hPa NW 17.7 mph /  28.5 km/h 17.7 mph /  28.5 km/h 70 % 0.0 in /  0 mm 0.0 W/m2 CLR
00:53 2.2 °F /  -16.6 °C -2.7 °F /  -19.3 °C 1023.6 in /  34659.1 hPa NW 17.7 mph /  28.5 km/h 17.7 mph /  28.5 km/h 70 % 0.0 in /  0 mm 0.0 W/m2 CLR
00:58 2.2 °F /  -16.6 °C -2.7 °F /  -19.3 °C 1023.6 in /  34659.1 hPa NW 25.9 mph /  41.7 km/h 25.9 mph /  41.7 km/h 70 % 0.0 in /  0 mm 0.0 W/m2 CLR
01:03 2.2 °F /  -16.6 °C -2.7 °F /  -19.3 °C 1023.6 in /  34659.1 hPa WNW 22.2 mph /  35.7 km/h 22.2 mph /  35.7 km/h 70 % 0.0 in /  0 mm 0.0 W/m2 CLR
01:08 2.2 °F /  -16.6 °C -2.9 °F /  -19.4 °C 1023.6 in /  34659.1 hPa NW 18.5 mph /  29.8 km/h 18.5 mph /  29.8 km/h 69 % 0.0 in /  0 mm 0.0 W/m2 CLR
01:13 2.2 °F /  -16.6 °C -2.7 °F /  -19.3 °C 1023.6 in /  34659.1 hPa NW 17.7 mph /  28.5 km/h 17.7 mph /  28.5 km/h 70 % 0.0 in /  0 mm 0.0 W/m2 CLR
01:18 2.2 °F /  -16.6 °C -2.7 °F /  -19.3 °C 1023.6 in /  34659.1 hPa NW 18.5 mph /  29.8 km/h 18.5 mph /  29.8 km/h 70 % 0.0 in /  0 mm 0.0 W/m2 CLR
01:23 2.2 °F /  -16.6 °C -2.7 °F /  -19.3 °C 1023.6 in /  34659.1 hPa NW 18.5 mph /  29.8 km/h 18.5 mph /  29.8 km/h 70 % 0.0 in /  0 mm 0.0 W/m2 CLR
01:28 2.2 °F /  -16.6 °C -2.7 °F /  -19.3 °C 1023.6 in /  34659.1 hPa WNW 16.7 mph /  26.9 km/h 16.7 mph /  26.9 km/h 70 % 0.0 in /  0 mm 0.0 W/m2 CLR
01:33 1.7 °F /  -16.8 °C -3.1 °F /  -19.5 °C 1023.6 in /  34659.1 hPa NW 18.5 mph /  29.8 km/h 18.5 mph /  29.8 km/h 71 % 0.0 in /  0 mm 0.0 W/m2 CLR
01:38 1.7 °F /  -16.8 °C -3.1 °F /  -19.5 °C 1023.6 in /  34659.1 hPa NW 18.5 mph /  29.8 km/h 18.5 mph /  29.8 km/h 71 % 0.0 in /  0 mm 0.0 W/m2 CLR
01:43 1.7 °F /  -16.8 °C -3.1 °F /  -19.5 °C 1023.6 in /  34659.1 hPa NW 14.5 mph /  23.3 km/h 14.5 mph /  23.3 km/h 71 % 0.0 in /  0 mm 0.0 W/m2 CLR
01:48 1.7 °F /  -16.8 °C -3.1 °F /  -19.5 °C 1023.6 in /  34659.1 hPa NW 14.5 mph /  23.3 km/h 14.5 mph /  23.3 km/h 71 % 0.0 in /  0 mm 0.0 W/m2 CLR
01:53 1.1 °F /  -17.2 °C -3.6 °F /  -19.8 °C 1023.6 in /  34659.1 hPa NW 14.8 mph /  23.8 km/h 14.8 mph /  23.8 km/h 71 % 0.0 in /  0 mm 0.0 W/m2 CLR
01:58 1.1 °F /  -17.2 °C -3.6 °F /  -19.8 °C 1023.6 in /  34659.1 hPa NW 17.7 mph /  28.5 km/h 17.7 mph /  28.5 km/h 71 % 0.0 in /  0 mm 0.0 W/m2 CLR
02:03 1.1 °F /  -17.2 °C -3.6 °F /  -19.8 °C 1023.6 in /  34659.1 hPa NW 18.5 mph /  29.8 km/h 18.5 mph /  29.8 km/h 71 % 0.0 in /  0 mm 0.0 W/m2 CLR
02:08 0.6 °F /  -17.4 °C -4.1 °F /  -20.1 °C 1023.6 in /  34659.1 hPa WNW 16.7 mph /  26.9 km/h 16.7 mph /  26.9 km/h 71 % 0.0 in /  0 mm 0.0 W/m2 CLR
02:13 0.6 °F /  -17.4 °C -4.1 °F /  -20.1 °C 1023.6 in /  34659.1 hPa NW 14.8 mph /  23.8 km/h 14.8 mph /  23.8 km/h 71 % 0.0 in /  0 mm 0.0 W/m2 CLR
02:18 0.0 °F /  -17.8 °C -4.6 °F /  -20.3 °C 1023.6 in /  34659.1 hPa NW 18.5 mph /  29.8 km/h 18.5 mph /  29.8 km/h 71 % 0.0 in /  0 mm 0.0 W/m2 CLR
02:23 0.0 °F /  -17.8 °C -4.6 °F /  -20.3 °C 1023.6 in /  34659.1 hPa NW 16.7 mph /  26.9 km/h 16.7 mph /  26.9 km/h 71 % 0.0 in /  0 mm 0.0 W/m2 CLR
02:28 0.0 °F /  -17.8 °C -4.6 °F /  -20.3 °C 1023.6 in /  34659.1 hPa NW 14.8 mph /  23.8 km/h 14.8 mph /  23.8 km/h 71 % 0.0 in /  0 mm 0.0 W/m2 CLR
02:33 0.0 °F /  -17.8 °C -4.8 °F /  -20.4 °C 1023.6 in /  34659.1 hPa NW 14.8 mph /  23.8 km/h 14.8 mph /  23.8 km/h 70 % 0.0 in /  0 mm 0.0 W/m2 CLR
02:38 0.0 °F /  -17.8 °C -4.8 °F /  -20.4 °C 1023.6 in /  34659.1 hPa WNW 16.7 mph /  26.9 km/h 16.7 mph /  26.9 km/h 70 % 0.0 in /  0 mm 0.0 W/m2 CLR
02:43 0.6 °F /  -17.4 °C -4.3 °F /  -20.2 °C 1023.6 in /  34659.1 hPa WNW 16.7 mph /  26.9 km/h 16.7 mph /  26.9 km/h 70 % 0.0 in /  0 mm 0.0 W/m2 CLR
02:48 0.6 °F /  -17.4 °C -4.3 °F /  -20.2 °C 1023.6 in /  34659.1 hPa WNW 14.8 mph /  23.8 km/h 14.8 mph /  23.8 km/h 70 % 0.0 in /  0 mm 0.0 W/m2 CLR
02:53 0.0 °F /  -17.8 °C -4.8 °F /  -20.4 °C 1023.6 in /  34659.1 hPa WNW 16.1 mph /  25.9 km/h 16.1 mph /  25.9 km/h 70 % 0.0 in /  0 mm 0.0 W/m2 CLR
02:58 0.0 °F /  -17.8 °C -5.0 °F /  -20.6 °C 1023.6 in /  34659.1 hPa WNW 16.7 mph /  26.9 km/h 16.7 mph /  26.9 km/h 69 % 0.0 in /  0 mm 0.0 W/m2 CLR
03:03 0.0 °F /  -17.8 °C -5.0 °F /  -20.6 °C 1023.6 in /  34659.1 hPa WNW 18.5 mph /  29.8 km/h 18.5 mph /  29.8 km/h 69 % 0.0 in /  0 mm 0.0 W/m2 CLR
03:08 0.6 °F /  -17.4 °C -4.5 °F /  -20.3 °C 1023.6 in /  34659.1 hPa WNW 18.5 mph /  29.8 km/h 18.5 mph /  29.8 km/h 69 % 0.0 in /  0 mm 0.0 W/m2 CLR
03:13 0.6 °F /  -17.4 °C -4.5 °F /  -20.3 °C 1023.6 in /  34659.1 hPa NW 16.7 mph /  26.9 km/h 16.7 mph /  26.9 km/h 69 % 0.0 in /  0 mm 0.0 W/m2 CLR
03:18 1.1 °F /  -17.2 °C -3.8 °F /  -19.9 °C 1023.6 in /  34659.1 hPa NW 18.5 mph /  29.8 km/h 18.5 mph /  29.8 km/h 70 % 0.0 in /  0 mm 0.0 W/m2 CLR
03:23 1.7 °F /  -16.8 °C -3.2 °F /  -19.6 °C 1023.6 in /  34659.1 hPa NW 14.8 mph /  23.8 km/h 14.8 mph /  23.8 km/h 70 % 0.0 in /  0 mm 0.0 W/m2 CLR
03:28 1.1 °F /  -17.2 °C -3.8 °F /  -19.9 °C 1023.2 in /  34645.6 hPa NW 13.0 mph /  20.9 km/h 13.0 mph /  20.9 km/h 70 % 0.0 in /  0 mm 0.0 W/m2 CLR
03:33 1.1 °F /  -17.2 °C -3.8 °F /  -19.9 °C 1023.2 in /  34645.6 hPa NW 9.3 mph /  15 km/h 9.3 mph /  15 km/h 70 % 0.0 in /  0 mm 0.0 W/m2 CLR
03:38 1.1 °F /  -17.2 °C -3.8 °F /  -19.9 °C 1023.2 in /  34645.6 hPa NNW 7.4 mph /  11.9 km/h 7.4 mph /  11.9 km/h 70 % 0.0 in /  0 mm 0.0 W/m2 CLR
03:43 0.6 °F /  -17.4 °C -4.1 °F /  -20.1 °C 1023.2 in /  34645.6 hPa NW 9.3 mph /  15 km/h 9.3 mph /  15 km/h 71 % 0.0 in /  0 mm 0.0 W/m2 CLR
03:48 0.0 °F /  -17.8 °C -4.6 °F /  -20.3 °C 1023.2 in /  34645.6 hPa Calm     71 % 0.0 in /  0 mm 0.0 W/m2 CLR
03:53 -0.6 °F /  -18.1 °C -5.0 °F /  -20.6 °C 1022.9 in /  34635.4 hPa Calm     72 % 0.0 in /  0 mm 0.0 W/m2 CLR
03:58 -0.6 °F /  -18.1 °C -4.8 °F /  -20.4 °C 1022.9 in /  34635.4 hPa Calm     73 % 0.0 in /  0 mm 0.0 W/m2 CLR
04:03 -1.1 °F /  -18.4 °C -5.2 °F /  -20.7 °C 1023.2 in /  34645.6 hPa Calm     74 % 0.0 in /  0 mm 0.0 W/m2 CLR
04:08 -1.1 °F /  -18.4 °C -4.8 °F /  -20.4 °C 1023.2 in /  34645.6 hPa Calm     76 % 0.0 in /  0 mm 0.0 W/m2 CLR
04:13 -1.1 °F /  -18.4 °C -4.6 °F /  -20.3 °C 1023.2 in /  34645.6 hPa Calm     77 % 0.0 in /  0 mm 0.0 W/m2 CLR
04:18 -1.1 °F /  -18.4 °C -4.4 °F /  -20.2 °C 1022.9 in /  34635.4 hPa Calm     78 % 0.0 in /  0 mm 0.0 W/m2 CLR
04:23 -1.7 °F /  -18.7 °C -5.0 °F /  -20.6 °C 1022.9 in /  34635.4 hPa Calm     78 % 0.0 in /  0 mm 0.0 W/m2 CLR
04:28 -1.7 °F /  -18.7 °C -5.0 °F /  -20.6 °C 1022.9 in /  34635.4 hPa Calm     78 % 0.0 in /  0 mm 0.0 W/m2 CLR
04:33 -1.7 °F /  -18.7 °C -4.8 °F /  -20.4 °C 1022.9 in /  34635.4 hPa Calm     79 % 0.0 in /  0 mm 0.0 W/m2 CLR
04:34 -1.7 °F /  -18.7 °C -4.8 °F /  -20.4 °C 1022.9 in /  34635.4 hPa Calm     79 % 0.0 in /  0 mm 0.0 W/m2 CLR
04:39 -1.7 °F /  -18.7 °C -4.8 °F /  -20.4 °C 1022.9 in /  34635.4 hPa Calm     79 % 0.0 in /  0 mm 0.0 W/m2 CLR
04:44 -1.7 °F /  -18.7 °C -4.8 °F /  -20.4 °C 1022.9 in /  34635.4 hPa Calm     79 % 0.0 in /  0 mm 0.0 W/m2 CLR
04:49 -1.7 °F /  -18.7 °C -4.8 °F /  -20.4 °C 1022.9 in /  34635.4 hPa WNW 5.6 mph /  9 km/h 5.6 mph /  9 km/h 79 % 0.0 in /  0 mm 0.0 W/m2 CLR
04:54 -1.7 °F /  -18.7 °C -5.0 °F /  -20.6 °C 1022.9 in /  34635.4 hPa Calm     78 % 0.0 in /  0 mm 0.0 W/m2 CLR
04:59 -1.7 °F /  -18.7 °C -5.0 °F /  -20.6 °C 1022.9 in /  34635.4 hPa Calm     78 % 0.0 in /  0 mm 0.0 W/m2 CLR
05:04 -1.7 °F /  -18.7 °C -5.0 °F /  -20.6 °C 1022.6 in /  34625.2 hPa Calm     78 % 0.0 in /  0 mm 0.0 W/m2 CLR
05:09 -1.7 °F /  -18.7 °C -5.0 °F /  -20.6 °C 1022.9 in /  34635.4 hPa Calm     78 % 0.0 in /  0 mm 0.0 W/m2 CLR
05:14 -1.7 °F /  -18.7 °C -5.0 °F /  -20.6 °C 1022.9 in /  34635.4 hPa Calm     78 % 0.0 in /  0 mm 0.0 W/m2 CLR
05:19 -1.7 °F /  -18.7 °C -5.0 °F /  -20.6 °C 1022.6 in /  34625.2 hPa Calm     78 % 0.0 in /  0 mm 0.0 W/m2 CLR
05:24 -1.7 °F /  -18.7 °C -4.8 °F /  -20.4 °C 1022.6 in /  34625.2 hPa Calm     79 % 0.0 in /  0 mm 0.0 W/m2 CLR
05:29 -2.2 °F /  -19 °C -5.2 °F /  -20.7 °C 1022.6 in /  34625.2 hPa Calm     80 % 0.0 in /  0 mm 0.0 W/m2 CLR
05:34 -2.8 °F /  -19.3 °C -5.6 °F /  -20.9 °C 1022.6 in /  34625.2 hPa Calm     81 % 0.0 in /  0 mm 0.0 W/m2 CLR
05:39 -2.8 °F /  -19.3 °C -5.4 °F /  -20.8 °C 1022.6 in /  34625.2 hPa Calm     82 % 0.0 in /  0 mm 0.0 W/m2 CLR
05:44 -3.3 °F /  -19.6 °C -5.8 °F /  -21 °C 1022.6 in /  34625.2 hPa Calm     83 % 0.0 in /  0 mm 0.0 W/m2 CLR
05:49 -3.3 °F /  -19.6 °C -5.7 °F /  -20.9 °C 1022.6 in /  34625.2 hPa Calm     84 % 0.0 in /  0 mm 0.0 W/m2 CLR
05:54 -3.3 °F /  -19.6 °C -5.7 °F /  -20.9 °C 1022.6 in /  34625.2 hPa Calm     84 % 0.0 in /  0 mm 0.0 W/m2 CLR
05:59 -3.3 °F /  -19.6 °C -5.7 °F /  -20.9 °C 1022.6 in /  34625.2 hPa Calm     84 % 0.0 in /  0 mm 0.0 W/m2 CLR
06:04 -3.3 °F /  -19.6 °C -5.5 °F /  -20.8 °C 1022.6 in /  34625.2 hPa Calm     85 % 0.0 in /  0 mm 0.0 W/m2 CLR
06:09 -3.3 °F /  -19.6 °C -5.5 °F /  -20.8 °C 1022.6 in /  34625.2 hPa Calm     85 % 0.0 in /  0 mm 0.0 W/m2 CLR
06:14 -3.3 °F /  -19.6 °C -5.3 °F /  -20.7 °C 1022.6 in /  34625.2 hPa Calm     86 % 0.0 in /  0 mm 0.0 W/m2 CLR
06:19 -3.3 °F /  -19.6 °C -5.3 °F /  -20.7 °C 1022.6 in /  34625.2 hPa Calm     86 % 0.0 in /  0 mm 0.0 W/m2 CLR
06:24 -3.3 °F /  -19.6 °C -5.3 °F /  -20.7 °C 1022.6 in /  34625.2 hPa Calm     86 % 0.0 in /  0 mm 0.0 W/m2 CLR
06:29 -3.9 °F /  -19.9 °C -5.9 °F /  -21.1 °C 1022.6 in /  34625.2 hPa Calm     86 % 0.0 in /  0 mm 0.0 W/m2 CLR
06:34 -3.9 °F /  -19.9 °C -5.9 °F /  -21.1 °C 1022.2 in /  34611.7 hPa Calm     86 % 0.0 in /  0 mm 0.0 W/m2 CLR
06:39 -3.9 °F /  -19.9 °C -5.9 °F /  -21.1 °C 1022.6 in /  34625.2 hPa Calm     86 % 0.0 in /  0 mm 0.0 W/m2 CLR
06:44 -3.9 °F /  -19.9 °C -5.9 °F /  -21.1 °C 1022.6 in /  34625.2 hPa Calm     86 % 0.0 in /  0 mm 0.0 W/m2 CLR
06:49 -3.3 °F /  -19.6 °C -5.2 °F /  -20.7 °C 1022.6 in /  34625.2 hPa Calm     87 % 0.0 in /  0 mm 0.0 W/m2 CLR
06:54 -3.9 °F /  -19.9 °C -5.9 °F /  -21.1 °C 1022.2 in /  34611.7 hPa Calm     86 % 0.0 in /  0 mm 0.0 W/m2 CLR
06:59 -3.9 °F /  -19.9 °C -5.9 °F /  -21.1 °C 1022.2 in /  34611.7 hPa Calm     86 % 0.0 in /  0 mm 0.0 W/m2 CLR
07:04 -3.9 °F /  -19.9 °C -5.9 °F /  -21.1 °C 1022.2 in /  34611.7 hPa Calm     86 % 0.0 in /  0 mm 0.0 W/m2 CLR
07:09 -3.9 °F /  -19.9 °C -5.9 °F /  -21.1 °C 1022.2 in /  34611.7 hPa Calm     86 % 0.0 in /  0 mm 0.0 W/m2 CLR
07:14 -3.9 °F /  -19.9 °C -5.9 °F /  -21.1 °C 1022.2 in /  34611.7 hPa Calm     86 % 0.0 in /  0 mm 0.0 W/m2 CLR
07:19 -3.9 °F /  -19.9 °C -5.7 °F /  -20.9 °C 1022.2 in /  34611.7 hPa Calm     87 % 0.0 in /  0 mm 0.0 W/m2 CLR
07:24 -4.4 °F /  -20.2 °C -6.3 °F /  -21.3 °C 1022.2 in /  34611.7 hPa Calm     87 % 0.0 in /  0 mm 0.0 W/m2 CLR
07:30 -3.9 °F /  -19.9 °C -5.7 °F /  -20.9 °C 1022.2 in /  34611.7 hPa Calm     87 % 0.0 in /  0 mm 0.0 W/m2 CLR
07:35 -3.9 °F /  -19.9 °C -5.7 °F /  -20.9 °C 1022.2 in /  34611.7 hPa Calm     87 % 0.0 in /  0 mm 0.0 W/m2 CLR
07:40 -3.9 °F /  -19.9 °C -5.7 °F /  -20.9 °C 1022.2 in /  34611.7 hPa Calm     87 % 0.0 in /  0 mm 0.0 W/m2 CLR
07:45 -3.9 °F /  -19.9 °C -5.7 °F /  -20.9 °C 1022.2 in /  34611.7 hPa Calm     87 % 0.0 in /  0 mm 0.0 W/m2 CLR
07:50 -4.4 °F /  -20.2 °C -6.1 °F /  -21.2 °C 1022.2 in /  34611.7 hPa Calm     88 % 0.0 in /  0 mm 0.0 W/m2 OVC
07:55 -4.4 °F /  -20.2 °C -6.1 °F /  -21.2 °C 1022.2 in /  34611.7 hPa Calm     88 % 0.0 in /  0 mm 0.0 W/m2 OVC
08:00 -3.9 °F /  -19.9 °C -5.6 °F /  -20.9 °C 1022.6 in /  34625.2 hPa Calm     88 % 0.0 in /  0 mm 5.0 W/m2 OVC
08:05 -3.9 °F /  -19.9 °C -5.6 °F /  -20.9 °C 1022.2 in /  34611.7 hPa Calm     88 % 0.0 in /  0 mm 9.0 W/m2 BKN
08:10 -4.4 °F /  -20.2 °C -6.1 °F /  -21.2 °C 1022.2 in /  34611.7 hPa Calm     88 % 0.0 in /  0 mm 9.0 W/m2 BKN
08:15 -4.4 °F /  -20.2 °C -6.0 °F /  -21.1 °C 1022.2 in /  34611.7 hPa Calm     89 % 0.0 in /  0 mm 11.0 W/m2 BKN
08:20 -3.9 °F /  -19.9 °C -5.4 °F /  -20.8 °C 1022.6 in /  34625.2 hPa Calm     89 % 0.0 in /  0 mm 14.0 W/m2 BKN
08:25 -3.9 °F /  -19.9 °C -5.4 °F /  -20.8 °C 1022.2 in /  34611.7 hPa Calm     89 % 0.0 in /  0 mm 21.0 W/m2 BKN
08:30 -3.9 °F /  -19.9 °C -5.4 °F /  -20.8 °C 1022.2 in /  34611.7 hPa Calm     89 % 0.0 in /  0 mm 30.0 W/m2 BKN
08:35 -3.9 °F /  -19.9 °C -5.4 °F /  -20.8 °C 1022.6 in /  34625.2 hPa Calm     89 % 0.0 in /  0 mm 44.0 W/m2 BKN
08:40 -3.9 °F /  -19.9 °C -5.4 °F /  -20.8 °C 1022.6 in /  34625.2 hPa Calm     89 % 0.0 in /  0 mm 46.0 W/m2 SCT
08:45 -3.9 °F /  -19.9 °C -5.6 °F /  -20.9 °C 1022.6 in /  34625.2 hPa Calm     88 % 0.0 in /  0 mm 74.0 W/m2 FEW
08:50 -3.9 °F /  -19.9 °C -5.6 °F /  -20.9 °C 1022.6 in /  34625.2 hPa Calm     88 % 0.0 in /  0 mm 72.0 W/m2 FEW
08:55 -3.9 °F /  -19.9 °C -5.6 °F /  -20.9 °C 1022.6 in /  34625.2 hPa Calm     88 % 0.0 in /  0 mm 100.0 W/m2 CLR
09:00 -3.9 °F /  -19.9 °C -5.6 °F /  -20.9 °C 1022.6 in /  34625.2 hPa Calm     88 % 0.0 in /  0 mm 113.0 W/m2 CLR
09:05 -3.3 °F /  -19.6 °C -5.1 °F /  -20.6 °C 1022.6 in /  34625.2 hPa Calm     88 % 0.0 in /  0 mm 95.0 W/m2 CLR
09:10 -2.8 °F /  -19.3 °C -4.5 °F /  -20.3 °C 1022.6 in /  34625.2 hPa Calm     88 % 0.0 in /  0 mm 72.0 W/m2 CLR
09:15 -2.2 °F /  -19 °C -3.9 °F /  -19.9 °C 1022.6 in /  34625.2 hPa Calm     88 % 0.0 in /  0 mm 128.0 W/m2 CLR
09:20 -2.2 °F /  -19 °C -4.2 °F /  -20.1 °C 1022.6 in /  34625.2 hPa Calm     86 % 0.0 in /  0 mm 153.0 W/m2 CLR
09:25 -1.7 °F /  -18.7 °C -3.8 °F /  -19.9 °C 1022.6 in /  34625.2 hPa Calm     85 % 0.0 in /  0 mm 121.0 W/m2 CLR
09:30 -1.7 °F /  -18.7 °C -4.0 °F /  -20 °C 1022.6 in /  34625.2 hPa Calm     84 % 0.0 in /  0 mm 142.0 W/m2 CLR
09:35 -1.1 °F /  -18.4 °C -3.6 °F /  -19.8 °C 1022.6 in /  34625.2 hPa Calm     83 % 0.0 in /  0 mm 255.0 W/m2 CLR
09:40 -0.6 °F /  -18.1 °C -3.4 °F /  -19.7 °C 1022.6 in /  34625.2 hPa Calm     81 % 0.0 in /  0 mm 287.0 W/m2 CLR
09:45 -0.6 °F /  -18.1 °C -3.8 °F /  -19.9 °C 1022.6 in /  34625.2 hPa Calm     79 % 0.0 in /  0 mm 255.0 W/m2 CLR
09:50 0.0 °F /  -17.8 °C -3.4 °F /  -19.7 °C 1022.2 in /  34611.7 hPa Calm     78 % 0.0 in /  0 mm 415.0 W/m2 CLR
09:55 0.6 °F /  -17.4 °C -2.8 °F /  -19.3 °C 1022.2 in /  34611.7 hPa Calm     78 % 0.0 in /  0 mm 397.0 W/m2 CLR
10:00 1.1 °F /  -17.2 °C -2.5 °F /  -19.2 °C 1022.2 in /  34611.7 hPa Calm     77 % 0.0 in /  0 mm 192.0 W/m2 CLR
10:05 1.7 °F /  -16.8 °C -2.3 °F /  -19.1 °C 1022.2 in /  34611.7 hPa Calm     75 % 0.0 in /  0 mm 160.0 W/m2 CLR
10:10 1.7 °F /  -16.8 °C -2.5 °F /  -19.2 °C 1022.2 in /  34611.7 hPa Calm     74 % 0.0 in /  0 mm 185.0 W/m2 CLR
10:15 2.2 °F /  -16.6 °C -1.9 °F /  -18.8 °C 1022.2 in /  34611.7 hPa Calm     74 % 0.0 in /  0 mm 253.0 W/m2 CLR
10:20 2.2 °F /  -16.6 °C -1.9 °F /  -18.8 °C 1022.2 in /  34611.7 hPa Calm     74 % 0.0 in /  0 mm 104.0 W/m2 CLR
10:25 2.8 °F /  -16.2 °C -1.8 °F /  -18.8 °C 1022.2 in /  34611.7 hPa Calm     72 % 0.0 in /  0 mm 120.0 W/m2 CLR
10:30 2.8 °F /  -16.2 °C -1.9 °F /  -18.8 °C 1022.2 in /  34611.7 hPa Calm     71 % 0.0 in /  0 mm 450.0 W/m2 CLR
10:35 2.8 °F /  -16.2 °C -2.2 °F /  -19 °C 1022.2 in /  34611.7 hPa Calm     70 % 0.0 in /  0 mm 257.0 W/m2 CLR
10:40 3.9 °F /  -15.6 °C -1.5 °F /  -18.6 °C 1022.2 in /  34611.7 hPa Calm     68 % 0.0 in /  0 mm 510.0 W/m2 CLR
10:45 4.4 °F /  -15.3 °C -1.2 °F /  -18.4 °C 1022.2 in /  34611.7 hPa Calm     67 % 0.0 in /  0 mm 374.0 W/m2 CLR
10:50 5.6 °F /  -14.7 °C -0.5 °F /  -18.1 °C 1021.9 in /  34601.5 hPa Calm     65 % 0.0 in /  0 mm 462.0 W/m2 CLR
10:55 6.1 °F /  -14.4 °C -0.6 °F /  -18.1 °C 1021.9 in /  34601.5 hPa West 14.8 mph /  23.8 km/h 14.8 mph /  23.8 km/h 62 % 0.0 in /  0 mm 366.0 W/m2 CLR
11:00 7.2 °F /  -13.8 °C -1.5 °F /  -18.6 °C 1021.9 in /  34601.5 hPa WNW 19.3 mph /  31.1 km/h 19.3 mph /  31.1 km/h 54 % 0.0 in /  0 mm 267.0 W/m2 CLR
11:05 7.8 °F /  -13.4 °C -1.7 °F /  -18.7 °C 1021.9 in /  34601.5 hPa North 19.3 mph /  31.1 km/h 19.3 mph /  31.1 km/h 51 % 0.0 in /  0 mm 267.0 W/m2 CLR
11:10 7.8 °F /  -13.4 °C -1.7 °F /  -18.7 °C 1021.9 in /  34601.5 hPa NW 16.7 mph /  26.9 km/h 16.7 mph /  26.9 km/h 51 % 0.0 in /  0 mm 288.0 W/m2 CLR
11:15 7.8 °F /  -13.4 °C -2.0 °F /  -18.9 °C 1021.9 in /  34601.5 hPa West 16.7 mph /  26.9 km/h 16.7 mph /  26.9 km/h 50 % 0.0 in /  0 mm 294.0 W/m2 CLR
11:20 7.8 °F /  -13.4 °C -2.3 °F /  -19.1 °C 1021.6 in /  34591.4 hPa WNW 29.6 mph /  47.6 km/h 29.6 mph /  47.6 km/h 49 % 0.0 in /  0 mm 304.0 W/m2 CLR
11:25 7.8 °F /  -13.4 °C -2.3 °F /  -19.1 °C 1021.6 in /  34591.4 hPa NW 18.5 mph /  29.8 km/h 18.5 mph /  29.8 km/h 49 % 0.0 in /  0 mm 294.0 W/m2 CLR
11:30 8.3 °F /  -13.2 °C -1.8 °F /  -18.8 °C 1021.6 in /  34591.4 hPa NW 20.4 mph /  32.8 km/h 20.4 mph /  32.8 km/h 49 % 0.0 in /  0 mm 281.0 W/m2 CLR
11:35 8.3 °F /  -13.2 °C -1.8 °F /  -18.8 °C 1021.6 in /  34591.4 hPa West 24.1 mph /  38.8 km/h 24.1 mph /  38.8 km/h 49 % 0.0 in /  0 mm 236.0 W/m2 CLR
11:40 8.3 °F /  -13.2 °C -2.1 °F /  -18.9 °C 1021.2 in /  34577.8 hPa West 18.5 mph /  29.8 km/h 18.5 mph /  29.8 km/h 48 % 0.0 in /  0 mm 258.0 W/m2 CLR
11:45 8.3 °F /  -13.2 °C -1.8 °F /  -18.8 °C 1021.2 in /  34577.8 hPa WNW 18.5 mph /  29.8 km/h 18.5 mph /  29.8 km/h 49 % 0.0 in /  0 mm 260.0 W/m2 CLR
11:50 8.3 °F /  -13.2 °C -1.8 °F /  -18.8 °C 1021.2 in /  34577.8 hPa WNW 12.9 mph /  20.8 km/h 12.9 mph /  20.8 km/h 49 % 0.0 in /  0 mm 290.0 W/m2 CLR
11:55 8.3 °F /  -13.2 °C -1.8 °F /  -18.8 °C 1021.2 in /  34577.8 hPa West 16.1 mph /  25.9 km/h 16.1 mph /  25.9 km/h 49 % 0.0 in /  0 mm 350.0 W/m2 CLR
12:00 8.9 °F /  -12.8 °C -1.8 °F /  -18.8 °C 1021.2 in /  34577.8 hPa NW 18.5 mph /  29.8 km/h 18.5 mph /  29.8 km/h 47 % 0.0 in /  0 mm 320.0 W/m2 CLR
12:05 8.9 °F /  -12.8 °C -1.6 °F /  -18.7 °C 1020.9 in /  34567.7 hPa WNW 18.5 mph /  29.8 km/h 18.5 mph /  29.8 km/h 48 % 0.0 in /  0 mm 473.0 W/m2 CLR
12:10 9.4 °F /  -12.6 °C -1.1 °F /  -18.4 °C 1020.9 in /  34567.7 hPa NW 20.9 mph /  33.6 km/h 20.9 mph /  33.6 km/h 48 % 0.0 in /  0 mm 441.0 W/m2 CLR
12:15 9.4 °F /  -12.6 °C -1.1 °F /  -18.4 °C 1020.5 in /  34554.1 hPa WNW 20.4 mph /  32.8 km/h 20.4 mph /  32.8 km/h 48 % 0.0 in /  0 mm 373.0 W/m2 CLR
12:20 9.4 °F /  -12.6 °C -1.1 °F /  -18.4 °C 1020.5 in /  34554.1 hPa West 22.2 mph /  35.7 km/h 22.2 mph /  35.7 km/h 48 % 0.0 in /  0 mm 260.0 W/m2 CLR
12:25 9.4 °F /  -12.6 °C -1.1 °F /  -18.4 °C 1020.5 in /  34554.1 hPa NW 22.2 mph /  35.7 km/h 22.2 mph /  35.7 km/h 48 % 0.0 in /  0 mm 237.0 W/m2 CLR
12:30 9.4 °F /  -12.6 °C -1.3 °F /  -18.5 °C 1020.2 in /  34544 hPa WNW 18.5 mph /  29.8 km/h 18.5 mph /  29.8 km/h 47 % 0.0 in /  0 mm 214.0 W/m2 CLR
12:35 9.4 °F /  -12.6 °C -1.6 °F /  -18.7 °C 1020.2 in /  34544 hPa WNW 17.7 mph /  28.5 km/h 17.7 mph /  28.5 km/h 46 % 0.0 in /  0 mm 232.0 W/m2 CLR
12:40 9.4 °F /  -12.6 °C -1.3 °F /  -18.5 °C 1020.2 in /  34544 hPa NW 20.4 mph /  32.8 km/h 20.4 mph /  32.8 km/h 47 % 0.0 in /  0 mm 260.0 W/m2 CLR
12:45 9.4 °F /  -12.6 °C -1.6 °F /  -18.7 °C 1020.2 in /  34544 hPa WNW 18.5 mph /  29.8 km/h 18.5 mph /  29.8 km/h 46 % 0.0 in /  0 mm 264.0 W/m2 CLR
12:50 9.4 °F /  -12.6 °C -1.3 °F /  -18.5 °C 1020.2 in /  34544 hPa NW 16.7 mph /  26.9 km/h 16.7 mph /  26.9 km/h 47 % 0.0 in /  0 mm 251.0 W/m2 CLR
12:55 9.4 °F /  -12.6 °C -1.3 °F /  -18.5 °C 1020.2 in /  34544 hPa NW 3.2 mph /  5.1 km/h 3.2 mph /  5.1 km/h 47 % 0.0 in /  0 mm 218.0 W/m2 CLR
13:00 9.4 °F /  -12.6 °C -1.6 °F /  -18.7 °C 1020.2 in /  34544 hPa NW 14.8 mph /  23.8 km/h 14.8 mph /  23.8 km/h 46 % 0.0 in /  0 mm 165.0 W/m2 CLR
13:05 9.4 °F /  -12.6 °C -1.3 °F /  -18.5 °C 1020.2 in /  34544 hPa NNW 25.9 mph /  41.7 km/h 25.9 mph /  41.7 km/h 47 % 0.0 in /  0 mm 183.0 W/m2 CLR
13:10 9.4 °F /  -12.6 °C -1.6 °F /  -18.7 °C 1020.2 in /  34544 hPa NW 18.5 mph /  29.8 km/h 18.5 mph /  29.8 km/h 46 % 0.0 in /  0 mm 171.0 W/m2 CLR
13:15 9.4 °F /  -12.6 °C -1.3 °F /  -18.5 °C 1020.2 in /  34544 hPa NNW 18.5 mph /  29.8 km/h 18.5 mph /  29.8 km/h 47 % 0.0 in /  0 mm 214.0 W/m2 CLR
13:20 9.4 °F /  -12.6 °C -1.1 °F /  -18.4 °C 1020.2 in /  34544 hPa NNW 22.2 mph /  35.7 km/h 22.2 mph /  35.7 km/h 48 % 0.0 in /  0 mm 169.0 W/m2 CLR
13:25 9.4 °F /  -12.6 °C -1.1 °F /  -18.4 °C 1020.2 in /  34544 hPa North 18.5 mph /  29.8 km/h 18.5 mph /  29.8 km/h 48 % 0.0 in /  0 mm 204.0 W/m2 CLR
13:30 9.4 °F /  -12.6 °C -0.7 °F /  -18.2 °C 1020.2 in /  34544 hPa NNW 18.5 mph /  29.8 km/h 18.5 mph /  29.8 km/h 49 % 0.0 in /  0 mm 183.0 W/m2 CLR
13:35 9.4 °F /  -12.6 °C -1.1 °F /  -18.4 °C 1020.2 in /  34544 hPa NNW 20.9 mph /  33.6 km/h 20.9 mph /  33.6 km/h 48 % 0.0 in /  0 mm 155.0 W/m2 CLR
13:40 9.4 °F /  -12.6 °C -1.1 °F /  -18.4 °C 1020.2 in /  34544 hPa North 14.8 mph /  23.8 km/h 14.8 mph /  23.8 km/h 48 % 0.0 in /  0 mm 141.0 W/m2 CLR
13:45 8.9 °F /  -12.8 °C -1.0 °F /  -18.3 °C 1020.2 in /  34544 hPa NNE 14.8 mph /  23.8 km/h 14.8 mph /  23.8 km/h 50 % 0.0 in /  0 mm 109.0 W/m2 CLR
13:50 8.9 °F /  -12.8 °C -0.7 °F /  -18.2 °C 1020.2 in /  34544 hPa NNE 13.0 mph /  20.9 km/h 13.0 mph /  20.9 km/h 51 % 0.0 in /  0 mm 76.0 W/m2 CLR
13:56 8.9 °F /  -12.8 °C -0.2 °F /  -17.9 °C 1020.5 in /  34554.1 hPa NNE 14.5 mph /  23.3 km/h 14.5 mph /  23.3 km/h 53 % 0.0 in /  0 mm 60.0 W/m2 FEW
14:01 8.3 °F /  -13.2 °C -0.4 °F /  -18 °C 1020.2 in /  34544 hPa NW 32.2 mph /  51.8 km/h 32.2 mph /  51.8 km/h 54 % 0.0 in /  0 mm 74.0 W/m2 FEW
14:06 7.8 °F /  -13.4 °C -0.4 °F /  -18 °C 1020.2 in /  34544 hPa North 31.5 mph /  50.7 km/h 31.5 mph /  50.7 km/h 56 % 0.0 in /  0 mm 90.0 W/m2 FEW
14:11 7.8 °F /  -13.4 °C -0.4 °F /  -18 °C 1020.2 in /  34544 hPa NNE 24.1 mph /  38.8 km/h 24.1 mph /  38.8 km/h 56 % 0.0 in /  0 mm 118.0 W/m2 CLR
14:16 7.8 °F /  -13.4 °C -0.2 °F /  -17.9 °C 1020.2 in /  34544 hPa North 16.7 mph /  26.9 km/h 16.7 mph /  26.9 km/h 57 % 0.0 in /  0 mm 130.0 W/m2 CLR
14:21 7.8 °F /  -13.4 °C -0.2 °F /  -17.9 °C 1020.2 in /  34544 hPa North 20.9 mph /  33.6 km/h 20.9 mph /  33.6 km/h 57 % 0.0 in /  0 mm 123.0 W/m2 CLR
14:26 7.8 °F /  -13.4 °C -0.2 °F /  -17.9 °C 1020.2 in /  34544 hPa NNW 24.1 mph /  38.8 km/h 24.1 mph /  38.8 km/h 57 % 0.0 in /  0 mm 111.0 W/m2 CLR
14:31 7.8 °F /  -13.4 °C 0.0 °F /  -17.8 °C 1020.2 in /  34544 hPa North 18.5 mph /  29.8 km/h 18.5 mph /  29.8 km/h 58 % 0.0 in /  0 mm 139.0 W/m2 CLR
14:36 8.3 °F /  -13.2 °C 0.8 °F /  -17.3 °C 1019.9 in /  34533.8 hPa North 17.7 mph /  28.5 km/h 17.7 mph /  28.5 km/h 59 % 0.0 in /  0 mm 139.0 W/m2 CLR
14:41 7.8 °F /  -13.4 °C 0.5 °F /  -17.5 °C 1019.9 in /  34533.8 hPa North 35.2 mph /  56.6 km/h 35.2 mph /  56.6 km/h 60 % 0.0 in /  0 mm 90.0 W/m2 CLR
14:46 7.8 °F /  -13.4 °C 1.2 °F /  -17.1 °C 1020.2 in /  34544 hPa NNW 18.5 mph /  29.8 km/h 18.5 mph /  29.8 km/h 63 % 0.0 in /  0 mm 79.0 W/m2 CLR
14:51 7.2 °F /  -13.8 °C 1.1 °F /  -17.2 °C 1020.2 in /  34544 hPa North 22.2 mph /  35.7 km/h 22.2 mph /  35.7 km/h 65 % 0.0 in /  0 mm 72.0 W/m2 FEW
14:56 6.7 °F /  -14.1 °C 1.6 °F /  -16.9 °C 1020.2 in /  34544 hPa NNW 29.6 mph /  47.6 km/h 29.6 mph /  47.6 km/h 70 % 0.0 in /  0 mm 83.0 W/m2 FEW
15:01 6.1 °F /  -14.4 °C 1.6 °F /  -16.9 °C 1020.2 in /  34544 hPa NNW 18.5 mph /  29.8 km/h 18.5 mph /  29.8 km/h 73 % 0.0 in /  0 mm 97.0 W/m2 FEW
15:06 6.1 °F /  -14.4 °C 2.2 °F /  -16.6 °C 1020.2 in /  34544 hPa NNW 9.3 mph /  15 km/h 9.3 mph /  15 km/h 76 % 0.0 in /  0 mm 111.0 W/m2 CLR
15:11 6.1 °F /  -14.4 °C 1.8 °F /  -16.8 °C 1019.9 in /  34533.8 hPa NW 14.8 mph /  23.8 km/h 14.8 mph /  23.8 km/h 74 % 0.0 in /  0 mm 98.0 W/m2 CLR
15:16 6.1 °F /  -14.4 °C 2.0 °F /  -16.7 °C 1019.9 in /  34533.8 hPa NW 11.1 mph /  17.9 km/h 11.1 mph /  17.9 km/h 75 % 0.0 in /  0 mm 98.0 W/m2 CLR
15:21 6.1 °F /  -14.4 °C 2.2 °F /  -16.6 °C 1019.5 in /  34520.3 hPa Calm     76 % 0.0 in /  0 mm 91.0 W/m2 CLR
15:26 6.1 °F /  -14.4 °C 2.2 °F /  -16.6 °C 1019.5 in /  34520.3 hPa NW 5.6 mph /  9 km/h 5.6 mph /  9 km/h 76 % 0.0 in /  0 mm 121.0 W/m2 CLR
15:31 6.1 °F /  -14.4 °C 2.2 °F /  -16.6 °C 1019.5 in /  34520.3 hPa Calm     76 % 0.0 in /  0 mm 121.0 W/m2 CLR
15:36 6.1 °F /  -14.4 °C 2.2 °F /  -16.6 °C 1019.5 in /  34520.3 hPa Calm     76 % 0.0 in /  0 mm 114.0 W/m2 CLR
15:41 6.1 °F /  -14.4 °C 2.2 °F /  -16.6 °C 1019.2 in /  34510.1 hPa Calm     76 % 0.0 in /  0 mm 111.0 W/m2 CLR
15:46 6.1 °F /  -14.4 °C 2.4 °F /  -16.4 °C 1019.2 in /  34510.1 hPa Calm     77 % 0.0 in /  0 mm 98.0 W/m2 CLR
15:51 6.1 °F /  -14.4 °C 2.2 °F /  -16.6 °C 1019.2 in /  34510.1 hPa Calm     76 % 0.0 in /  0 mm 100.0 W/m2 CLR
15:56 6.1 °F /  -14.4 °C 2.2 °F /  -16.6 °C 1018.8 in /  34496.6 hPa Calm     76 % 0.0 in /  0 mm 105.0 W/m2 CLR
16:01 6.1 °F /  -14.4 °C 2.2 °F /  -16.6 °C 1019.2 in /  34510.1 hPa Calm     76 % 0.0 in /  0 mm 111.0 W/m2 CLR
16:06 6.7 °F /  -14.1 °C 2.7 °F /  -16.3 °C 1019.2 in /  34510.1 hPa Calm     76 % 0.0 in /  0 mm 91.0 W/m2 CLR
16:11 6.7 °F /  -14.1 °C 2.7 °F /  -16.3 °C 1019.2 in /  34510.1 hPa Calm     76 % 0.0 in /  0 mm 100.0 W/m2 CLR
16:16 6.7 °F /  -14.1 °C 2.7 °F /  -16.3 °C 1019.2 in /  34510.1 hPa Calm     76 % 0.0 in /  0 mm 81.0 W/m2 CLR
16:21 6.7 °F /  -14.1 °C 2.7 °F /  -16.3 °C 1019.2 in /  34510.1 hPa Calm     76 % 0.0 in /  0 mm 81.0 W/m2 CLR
16:26 6.7 °F /  -14.1 °C 2.7 °F /  -16.3 °C 1018.8 in /  34496.6 hPa Calm     76 % 0.0 in /  0 mm 72.0 W/m2 FEW
16:31 6.7 °F /  -14.1 °C 2.7 °F /  -16.3 °C 1018.8 in /  34496.6 hPa Calm     76 % 0.0 in /  0 mm 76.0 W/m2 FEW
16:36 6.7 °F /  -14.1 °C 2.7 °F /  -16.3 °C 1018.8 in /  34496.6 hPa Calm     76 % 0.0 in /  0 mm 69.0 W/m2 FEW
16:41 6.7 °F /  -14.1 °C 2.7 °F /  -16.3 °C 1018.8 in /  34496.6 hPa Calm     76 % 0.0 in /  0 mm 56.0 W/m2 SCT
16:46 6.7 °F /  -14.1 °C 2.6 °F /  -16.3 °C 1018.8 in /  34496.6 hPa Calm     75 % 0.0 in /  0 mm 63.0 W/m2 SCT
16:51 6.7 °F /  -14.1 °C 2.7 °F /  -16.3 °C 1018.8 in /  34496.6 hPa Calm     76 % 0.0 in /  0 mm 72.0 W/m2 SCT
16:56 6.7 °F /  -14.1 °C 2.7 °F /  -16.3 °C 1018.8 in /  34496.6 hPa Calm     76 % 0.0 in /  0 mm 67.0 W/m2 FEW
17:01 6.7 °F /  -14.1 °C 2.7 °F /  -16.3 °C 1018.8 in /  34496.6 hPa Calm     76 % 0.0 in /  0 mm 81.0 W/m2 FEW
17:06 7.2 °F /  -13.8 °C 2.9 °F /  -16.2 °C 1018.8 in /  34496.6 hPa NW 6.4 mph /  10.3 km/h 6.4 mph /  10.3 km/h 74 % 0.0 in /  0 mm 88.0 W/m2 FEW
17:11 7.2 °F /  -13.8 °C 2.7 °F /  -16.3 °C 1018.8 in /  34496.6 hPa NW 13.0 mph /  20.9 km/h 13.0 mph /  20.9 km/h 73 % 0.0 in /  0 mm 86.0 W/m2 FEW
17:16 7.2 °F /  -13.8 °C 2.5 °F /  -16.4 °C 1018.8 in /  34496.6 hPa NW 14.8 mph /  23.8 km/h 14.8 mph /  23.8 km/h 72 % 0.0 in /  0 mm 90.0 W/m2 CLR
17:21 7.2 °F /  -13.8 °C 2.5 °F /  -16.4 °C 1018.8 in /  34496.6 hPa NW 3.7 mph /  6 km/h   72 % 0.0 in /  0 mm 74.0 W/m2 FEW
17:26 7.2 °F /  -13.8 °C 2.3 °F /  -16.5 °C 1018.8 in /  34496.6 hPa NW 11.1 mph /  17.9 km/h 11.1 mph /  17.9 km/h 71 % 0.0 in /  0 mm 62.0 W/m2 FEW
17:31 7.2 °F /  -13.8 °C 2.3 °F /  -16.5 °C 1018.8 in /  34496.6 hPa WNW 13.0 mph /  20.9 km/h 13.0 mph /  20.9 km/h 71 % 0.0 in /  0 mm 56.0 W/m2 SCT
17:36 7.2 °F /  -13.8 °C 1.9 °F /  -16.7 °C 1018.8 in /  34496.6 hPa WNW 13.0 mph /  20.9 km/h 13.0 mph /  20.9 km/h 69 % 0.0 in /  0 mm 47.0 W/m2 SCT
17:41 7.2 °F /  -13.8 °C 1.7 °F /  -16.8 °C 1018.8 in /  34496.6 hPa NW 12.9 mph /  20.8 km/h 12.9 mph /  20.8 km/h 68 % 0.0 in /  0 mm 33.0 W/m2 BKN
17:46 7.2 °F /  -13.8 °C 1.7 °F /  -16.8 °C 1018.8 in /  34496.6 hPa WNW 9.3 mph /  15 km/h 9.3 mph /  15 km/h 68 % 0.0 in /  0 mm 26.0 W/m2 BKN
17:51 7.2 °F /  -13.8 °C 1.7 °F /  -16.8 °C 1018.8 in /  34496.6 hPa WNW 11.1 mph /  17.9 km/h 11.1 mph /  17.9 km/h 68 % 0.0 in /  0 mm 18.0 W/m2 BKN
17:56 7.2 °F /  -13.8 °C 1.7 °F /  -16.8 °C 1019.2 in /  34510.1 hPa WNW 11.1 mph /  17.9 km/h 11.1 mph /  17.9 km/h 68 % 0.0 in /  0 mm 18.0 W/m2 BKN
18:01 7.2 °F /  -13.8 °C 1.7 °F /  -16.8 °C 1018.8 in /  34496.6 hPa NW 13.0 mph /  20.9 km/h 13.0 mph /  20.9 km/h 68 % 0.0 in /  0 mm 14.0 W/m2 BKN
18:06 6.7 °F /  -14.1 °C 1.2 °F /  -17.1 °C 1018.8 in /  34496.6 hPa WNW 14.8 mph /  23.8 km/h 14.8 mph /  23.8 km/h 68 % 0.0 in /  0 mm 12.0 W/m2 BKN
18:11 6.7 °F /  -14.1 °C 1.2 °F /  -17.1 °C 1018.8 in /  34496.6 hPa NW 14.8 mph /  23.8 km/h 14.8 mph /  23.8 km/h 68 % 0.0 in /  0 mm 9.0 W/m2 BKN
18:16 6.7 °F /  -14.1 °C 1.2 °F /  -17.1 °C 1018.8 in /  34496.6 hPa NW 14.8 mph /  23.8 km/h 14.8 mph /  23.8 km/h 68 % 0.0 in /  0 mm 7.0 W/m2 BKN
18:21 6.7 °F /  -14.1 °C 1.4 °F /  -17 °C 1019.2 in /  34510.1 hPa NW 7.4 mph /  11.9 km/h 7.4 mph /  11.9 km/h 69 % 0.0 in /  0 mm 7.0 W/m2 BKN
18:26 6.7 °F /  -14.1 °C 1.4 °F /  -17 °C 1019.2 in /  34510.1 hPa Calm     69 % 0.0 in /  0 mm 0.0 W/m2 OVC
18:31 6.7 °F /  -14.1 °C 1.4 °F /  -17 °C 1019.2 in /  34510.1 hPa NW 6.4 mph /  10.3 km/h 6.4 mph /  10.3 km/h 69 % 0.0 in /  0 mm 0.0 W/m2 OVC
18:36 6.7 °F /  -14.1 °C 1.4 °F /  -17 °C 1019.2 in /  34510.1 hPa WNW 6.4 mph /  10.3 km/h 6.4 mph /  10.3 km/h 69 % 0.0 in /  0 mm 0.0 W/m2 OVC
18:41 6.1 °F /  -14.4 °C 0.7 °F /  -17.4 °C 1019.2 in /  34510.1 hPa NW 13.0 mph /  20.9 km/h 13.0 mph /  20.9 km/h 68 % 0.0 in /  0 mm 0.0 W/m2 OVC
18:46 6.7 °F /  -14.1 °C 1.2 °F /  -17.1 °C 1018.8 in /  34496.6 hPa WNW 1.9 mph /  3.1 km/h   68 % 0.0 in /  0 mm 0.0 W/m2 CLR
18:51 6.7 °F /  -14.1 °C 1.2 °F /  -17.1 °C 1019.2 in /  34510.1 hPa WNW 8.0 mph /  12.9 km/h 8.0 mph /  12.9 km/h 68 % 0.0 in /  0 mm 0.0 W/m2 CLR
18:56 6.7 °F /  -14.1 °C 1.2 °F /  -17.1 °C 1019.2 in /  34510.1 hPa Calm     68 % 0.0 in /  0 mm 0.0 W/m2 CLR
19:01 6.7 °F /  -14.1 °C 1.2 °F /  -17.1 °C 1019.2 in /  34510.1 hPa NW 9.3 mph /  15 km/h 9.3 mph /  15 km/h 68 % 0.0 in /  0 mm 0.0 W/m2 CLR
19:06 6.1 °F /  -14.4 °C 0.7 °F /  -17.4 °C 1019.2 in /  34510.1 hPa WNW 9.3 mph /  15 km/h 9.3 mph /  15 km/h 68 % 0.0 in /  0 mm 0.0 W/m2 CLR
19:11 6.1 °F /  -14.4 °C 0.8 °F /  -17.3 °C 1019.2 in /  34510.1 hPa NW 9.7 mph /  15.6 km/h 9.7 mph /  15.6 km/h 69 % 0.0 in /  0 mm 0.0 W/m2 CLR
19:16 5.6 °F /  -14.7 °C 0.3 °F /  -17.6 °C 1019.2 in /  34510.1 hPa NW 13.0 mph /  20.9 km/h 13.0 mph /  20.9 km/h 69 % 0.0 in /  0 mm 0.0 W/m2 CLR
19:21 5.6 °F /  -14.7 °C 0.1 °F /  -17.7 °C 1019.2 in /  34510.1 hPa NW 14.8 mph /  23.8 km/h 14.8 mph /  23.8 km/h 68 % 0.0 in /  0 mm 0.0 W/m2 CLR
19:26 5.0 °F /  -15 °C -0.4 °F /  -18 °C 1019.2 in /  34510.1 hPa NW 13.0 mph /  20.9 km/h 13.0 mph /  20.9 km/h 68 % 0.0 in /  0 mm 0.0 W/m2 CLR
19:31 5.0 °F /  -15 °C -0.4 °F /  -18 °C 1018.8 in /  34496.6 hPa NW 11.1 mph /  17.9 km/h   68 % 0.0 in /  0 mm 0.0 W/m2 CLR
19:36 5.0 °F /  -15 °C -0.4 °F /  -18 °C 1018.8 in /  34496.6 hPa WNW 11.3 mph /  18.2 km/h 11.3 mph /  18.2 km/h 68 % 0.0 in /  0 mm 0.0 W/m2 CLR
19:41 4.4 °F /  -15.3 °C -0.9 °F /  -18.3 °C 1019.2 in /  34510.1 hPa WNW 16.7 mph /  26.9 km/h 16.7 mph /  26.9 km/h 68 % 0.0 in /  0 mm 0.0 W/m2 CLR
19:46 4.4 °F /  -15.3 °C -1.2 °F /  -18.4 °C 1019.2 in /  34510.1 hPa NW 14.8 mph /  23.8 km/h 14.8 mph /  23.8 km/h 67 % 0.0 in /  0 mm 0.0 W/m2 CLR
19:51 4.4 °F /  -15.3 °C -1.2 °F /  -18.4 °C 1019.2 in /  34510.1 hPa NW 16.7 mph /  26.9 km/h 16.7 mph /  26.9 km/h 67 % 0.0 in /  0 mm 0.0 W/m2 CLR
19:56 4.4 °F /  -15.3 °C -1.2 °F /  -18.4 °C 1019.2 in /  34510.1 hPa WNW 18.5 mph /  29.8 km/h 18.5 mph /  29.8 km/h 67 % 0.0 in /  0 mm 0.0 W/m2 CLR
20:01 4.4 °F /  -15.3 °C -1.2 °F /  -18.4 °C 1019.2 in /  34510.1 hPa NW 18.5 mph /  29.8 km/h 18.5 mph /  29.8 km/h 67 % 0.0 in /  0 mm 0.0 W/m2 CLR
20:06 4.4 °F /  -15.3 °C -1.2 °F /  -18.4 °C 1019.2 in /  34510.1 hPa NW 17.7 mph /  28.5 km/h 17.7 mph /  28.5 km/h 67 % 0.0 in /  0 mm 0.0 W/m2 CLR
20:11 5.6 °F /  -14.7 °C -0.1 °F /  -17.8 °C 1019.2 in /  34510.1 hPa NW 14.8 mph /  23.8 km/h 14.8 mph /  23.8 km/h 67 % 0.0 in /  0 mm 0.0 W/m2 CLR
20:16 6.1 °F /  -14.4 °C 0.4 °F /  -17.6 °C 1019.2 in /  34510.1 hPa NW 16.7 mph /  26.9 km/h 16.7 mph /  26.9 km/h 67 % 0.0 in /  0 mm 0.0 W/m2 CLR
20:21 6.1 °F /  -14.4 °C 0.4 °F /  -17.6 °C 1019.2 in /  34510.1 hPa NW 16.7 mph /  26.9 km/h 16.7 mph /  26.9 km/h 67 % 0.0 in /  0 mm 0.0 W/m2 CLR
20:26 6.1 °F /  -14.4 °C 0.4 °F /  -17.6 °C 1019.2 in /  34510.1 hPa NW 20.4 mph /  32.8 km/h 20.4 mph /  32.8 km/h 67 % 0.0 in /  0 mm 0.0 W/m2 CLR
20:31 6.1 °F /  -14.4 °C 0.7 °F /  -17.4 °C 1019.2 in /  34510.1 hPa NW 16.7 mph /  26.9 km/h 16.7 mph /  26.9 km/h 68 % 0.0 in /  0 mm 0.0 W/m2 CLR
20:36 6.1 °F /  -14.4 °C 0.7 °F /  -17.4 °C 1019.2 in /  34510.1 hPa NW 18.5 mph /  29.8 km/h 18.5 mph /  29.8 km/h 68 % 0.0 in /  0 mm 0.0 W/m2 CLR
20:41 6.1 °F /  -14.4 °C 0.7 °F /  -17.4 °C 1018.8 in /  34496.6 hPa NW 20.4 mph /  32.8 km/h 20.4 mph /  32.8 km/h 68 % 0.0 in /  0 mm 0.0 W/m2 CLR
20:46 6.7 °F /  -14.1 °C 1.2 °F /  -17.1 °C 1018.8 in /  34496.6 hPa NW 20.4 mph /  32.8 km/h 20.4 mph /  32.8 km/h 68 % 0.0 in /  0 mm 0.0 W/m2 CLR
20:51 6.7 °F /  -14.1 °C 1.2 °F /  -17.1 °C 1018.8 in /  34496.6 hPa WNW 24.1 mph /  38.8 km/h 24.1 mph /  38.8 km/h 68 % 0.0 in /  0 mm 0.0 W/m2 CLR
20:56 7.2 °F /  -13.8 °C 1.7 °F /  -16.8 °C 1018.8 in /  34496.6 hPa NW 24.1 mph /  38.8 km/h 24.1 mph /  38.8 km/h 68 % 0.0 in /  0 mm 0.0 W/m2 CLR
21:02 7.2 °F /  -13.8 °C 1.7 °F /  -16.8 °C 1018.8 in /  34496.6 hPa NW 20.4 mph /  32.8 km/h 20.4 mph /  32.8 km/h 68 % 0.0 in /  0 mm 0.0 W/m2 CLR
21:07 7.2 °F /  -13.8 °C 1.7 °F /  -16.8 °C 1019.2 in /  34510.1 hPa NW 22.2 mph /  35.7 km/h 22.2 mph /  35.7 km/h 68 % 0.0 in /  0 mm 0.0 W/m2 CLR
21:12 7.2 °F /  -13.8 °C 1.9 °F /  -16.7 °C 1019.2 in /  34510.1 hPa NW 18.5 mph /  29.8 km/h 18.5 mph /  29.8 km/h 69 % 0.0 in /  0 mm 0.0 W/m2 CLR
21:17 6.7 °F /  -14.1 °C 1.4 °F /  -17 °C 1019.2 in /  34510.1 hPa NW 18.5 mph /  29.8 km/h 18.5 mph /  29.8 km/h 69 % 0.0 in /  0 mm 0.0 W/m2 CLR
21:22 6.7 °F /  -14.1 °C 1.4 °F /  -17 °C 1019.5 in /  34520.3 hPa NNW 18.5 mph /  29.8 km/h 18.5 mph /  29.8 km/h 69 % 0.0 in /  0 mm 0.0 W/m2 CLR
21:27 6.7 °F /  -14.1 °C 1.6 °F /  -16.9 °C 1019.5 in /  34520.3 hPa NW 16.7 mph /  26.9 km/h 16.7 mph /  26.9 km/h 70 % 0.0 in /  0 mm 0.0 W/m2 CLR
21:32 6.7 °F /  -14.1 °C 1.6 °F /  -16.9 °C 1019.5 in /  34520.3 hPa NNW 18.5 mph /  29.8 km/h 18.5 mph /  29.8 km/h 70 % 0.0 in /  0 mm 0.0 W/m2 CLR
21:37 6.7 °F /  -14.1 °C 1.6 °F /  -16.9 °C 1019.5 in /  34520.3 hPa NW 16.7 mph /  26.9 km/h 16.7 mph /  26.9 km/h 70 % 0.0 in /  0 mm 0.0 W/m2 CLR
21:42 6.7 °F /  -14.1 °C 1.6 °F /  -16.9 °C 1019.5 in /  34520.3 hPa NW 18.5 mph /  29.8 km/h 18.5 mph /  29.8 km/h 70 % 0.0 in /  0 mm 0.0 W/m2 CLR
21:47 6.7 °F /  -14.1 °C 1.6 °F /  -16.9 °C 1019.5 in /  34520.3 hPa North 19.3 mph /  31.1 km/h 19.3 mph /  31.1 km/h 70 % 0.0 in /  0 mm 0.0 W/m2 CLR
21:52 7.2 °F /  -13.8 °C 2.1 °F /  -16.6 °C 1019.5 in /  34520.3 hPa NW 18.5 mph /  29.8 km/h 18.5 mph /  29.8 km/h 70 % 0.0 in /  0 mm 0.0 W/m2 CLR
21:57 7.2 °F /  -13.8 °C 2.1 °F /  -16.6 °C 1019.5 in /  34520.3 hPa NW 18.5 mph /  29.8 km/h 18.5 mph /  29.8 km/h 70 % 0.0 in /  0 mm 0.0 W/m2 CLR
22:02 6.7 °F /  -14.1 °C 1.6 °F /  -16.9 °C 1019.2 in /  34510.1 hPa NW 18.5 mph /  29.8 km/h 18.5 mph /  29.8 km/h 70 % 0.0 in /  0 mm 0.0 W/m2 CLR
22:07 6.7 °F /  -14.1 °C 1.6 °F /  -16.9 °C 1019.5 in /  34520.3 hPa NW 18.5 mph /  29.8 km/h 18.5 mph /  29.8 km/h 70 % 0.0 in /  0 mm 0.0 W/m2 CLR
22:12 6.7 °F /  -14.1 °C 1.6 °F /  -16.9 °C 1019.2 in /  34510.1 hPa NNW 16.7 mph /  26.9 km/h 16.7 mph /  26.9 km/h 70 % 0.0 in /  0 mm 0.0 W/m2 CLR
22:17 6.7 °F /  -14.1 °C 1.8 °F /  -16.8 °C 1019.2 in /  34510.1 hPa NW 14.8 mph /  23.8 km/h 14.8 mph /  23.8 km/h 71 % 0.0 in /  0 mm 0.0 W/m2 CLR
22:22 6.1 °F /  -14.4 °C 1.2 °F /  -17.1 °C 1019.2 in /  34510.1 hPa NW 14.8 mph /  23.8 km/h 14.8 mph /  23.8 km/h 71 % 0.0 in /  0 mm 0.0 W/m2 CLR
22:27 6.1 °F /  -14.4 °C 1.4 °F /  -17 °C 1019.5 in /  34520.3 hPa NW 16.7 mph /  26.9 km/h 16.7 mph /  26.9 km/h 72 % 0.0 in /  0 mm 0.0 W/m2 CLR
22:32 6.1 °F /  -14.4 °C 1.4 °F /  -17 °C 1019.5 in /  34520.3 hPa NW 19.3 mph /  31.1 km/h 19.3 mph /  31.1 km/h 72 % 0.0 in /  0 mm 0.0 W/m2 CLR
22:37 6.1 °F /  -14.4 °C 1.4 °F /  -17 °C 1019.5 in /  34520.3 hPa NW 18.5 mph /  29.8 km/h 18.5 mph /  29.8 km/h 72 % 0.0 in /  0 mm 0.0 W/m2 CLR
22:42 6.1 °F /  -14.4 °C 1.6 °F /  -16.9 °C 1019.5 in /  34520.3 hPa NW 18.5 mph /  29.8 km/h 18.5 mph /  29.8 km/h 73 % 0.0 in /  0 mm 0.0 W/m2 CLR
22:47 6.1 °F /  -14.4 °C 1.6 °F /  -16.9 °C 1019.5 in /  34520.3 hPa NNW 16.7 mph /  26.9 km/h 16.7 mph /  26.9 km/h 73 % 0.0 in /  0 mm 0.0 W/m2 CLR
22:52 6.1 °F /  -14.4 °C 1.6 °F /  -16.9 °C 1019.5 in /  34520.3 hPa North 18.5 mph /  29.8 km/h 18.5 mph /  29.8 km/h 73 % 0.0 in /  0 mm 0.0 W/m2 CLR
22:58 6.7 °F /  -14.1 °C 2.3 °F /  -16.5 °C 1019.5 in /  34520.3 hPa NNW 20.9 mph /  33.6 km/h 20.9 mph /  33.6 km/h 74 % 0.0 in /  0 mm 0.0 W/m2 CLR
23:03 6.7 °F /  -14.1 °C 2.2 °F /  -16.6 °C 1019.5 in /  34520.3 hPa NNW 18.5 mph /  29.8 km/h 18.5 mph /  29.8 km/h 73 % 0.0 in /  0 mm 0.0 W/m2 CLR
23:08 6.7 °F /  -14.1 °C 2.3 °F /  -16.5 °C 1019.5 in /  34520.3 hPa NNW 20.4 mph /  32.8 km/h 20.4 mph /  32.8 km/h 74 % 0.0 in /  0 mm 0.0 W/m2 CLR
23:13 6.7 °F /  -14.1 °C 2.2 °F /  -16.6 °C 1019.5 in /  34520.3 hPa NNW 18.5 mph /  29.8 km/h 18.5 mph /  29.8 km/h 73 % 0.0 in /  0 mm 0.0 W/m2 CLR
23:18 6.7 °F /  -14.1 °C 2.3 °F /  -16.5 °C 1019.5 in /  34520.3 hPa NNW 20.4 mph /  32.8 km/h 20.4 mph /  32.8 km/h 74 % 0.0 in /  0 mm 0.0 W/m2 CLR
23:23 6.7 °F /  -14.1 °C 2.3 °F /  -16.5 °C 1019.5 in /  34520.3 hPa NNW 18.5 mph /  29.8 km/h 18.5 mph /  29.8 km/h 74 % 0.0 in /  0 mm 0.0 W/m2 CLR
23:28 6.7 °F /  -14.1 °C 2.3 °F /  -16.5 °C 1019.5 in /  34520.3 hPa NW 18.5 mph /  29.8 km/h 18.5 mph /  29.8 km/h 74 % 0.0 in /  0 mm 0.0 W/m2 CLR
23:33 6.1 °F /  -14.4 °C 1.8 °F /  -16.8 °C 1019.5 in /  34520.3 hPa NW 14.8 mph /  23.8 km/h 14.8 mph /  23.8 km/h 74 % 0.0 in /  0 mm 0.0 W/m2 CLR
23:38 6.1 °F /  -14.4 °C 1.8 °F /  -16.8 °C 1019.5 in /  34520.3 hPa NW 17.7 mph /  28.5 km/h 17.7 mph /  28.5 km/h 74 % 0.0 in /  0 mm 0.0 W/m2 CLR
23:43 6.1 °F /  -14.4 °C 1.8 °F /  -16.8 °C 1019.5 in /  34520.3 hPa NW 16.7 mph /  26.9 km/h 16.7 mph /  26.9 km/h 74 % 0.0 in /  0 mm 0.0 W/m2 CLR
23:48 6.1 °F /  -14.4 °C 2.0 °F /  -16.7 °C 1019.5 in /  34520.3 hPa NW 16.7 mph /  26.9 km/h 16.7 mph /  26.9 km/h 75 % 0.0 in /  0 mm 0.0 W/m2 CLR
23:53 6.1 °F /  -14.4 °C 2.2 °F /  -16.6 °C 1019.5 in /  34520.3 hPa NNW 18.5 mph /  29.8 km/h 18.5 mph /  29.8 km/h 76 % 0.0 in /  0 mm 0.0 W/m2 CLR
23:58 6.1 °F /  -14.4 °C 2.2 °F /  -16.6 °C 1019.2 in /  34510.1 hPa NW 16.7 mph /  26.9 km/h 16.7 mph /  26.9 km/h 76 % 0.0 in /  0 mm 0.0 W/m2 CLR
Lo Temps de Massalio
Compliments of Weather Underground - 1.25 mb